Date,TemperatureHighF,TemperatureAvgF,TemperatureLowF,DewpointHighF,DewpointAvgF,DewpointLowF,HumidityHigh,HumidityAvg,HumidityLow,PressureMaxIn,PressureMinIn,WindSpeedMaxMPH,WindSpeedAvgMPH,GustSpeedMaxMPH,PrecipitationSumIn
2013-2-1,43.5,29.7,19.2,26.9,9.1,-2.4,72,45,23,29.94,29.94,37,6,37,0.01
2013-2-2,33.1,26.3,16.7,29.9,18.3,3.8,88,73,33,29.94,29.94,18,2,18,0.00
2013-2-3,50.4,36.6,28.4,35.5,26.4,19.4,88,69,36,29.94,29.94,20,3,20,0.19
2013-2-4,49.3,36.5,24.3,25.8,20.2,16.0,79,55,34,29.94,29.94,15,4,15,0.00
2013-2-5,61.5,46.5,38.1,42.4,33.0,20.8,88,63,32,29.94,29.94,9,2,9,0.01
2013-2-6,63.5,46.9,33.3,40.9,28.9,15.3,91,59,19,29.94,29.94,13,2,13,0.00
2013-2-7,51.1,43.1,35.4,45.4,36.5,23.9,92,78,51,29.94,29.94,10,2,10,0.21
2013-2-8,55.2,44.5,34.5,48.4,38.8,25.3,94,82,52,29.94,29.94,24,4,24,0.06
2013-2-9,63.7,43.5,27.1,32.6,25.2,16.8,80,55,20,29.94,29.94,17,4,17,0.00
2013-2-10,56.5,48.9,42.4,49.5,31.0,14.4,92,56,23,29.94,29.94,30,10,30,0.79
2013-2-11,52.9,51.8,51.8,49.1,48.9,48.1,90,90,86,29.94,29.94,16,9,16,0.04
2013-2-12,52.7,48.8,41.5,48.9,40.7,26.6,90,76,40,29.94,29.94,9,5,9,0.18
2013-2-13,46.9,41.7,38.1,44.1,37.8,32.8,93,86,79,29.94,29.94,14,5,14,0.18
2013-2-14,55.2,41.7,33.1,32.8,29.8,25.4,81,66,35,29.94,29.94,12,4,12,0.18
2013-2-15,58.5,39.0,26.6,41.1,30.1,21.3,87,73,33,29.94,29.94,19,3,19,0.12
2013-2-16,37.2,30.4,-4.9,28.0,17.1,3.3,83,60,32,29.94,29.94,97,3,97,14.28
2013-2-17,42.6,29.2,18.1,9.4,4.9,0.4,56,38,24,29.94,29.94,17,3,17,0.00
2013-2-18,57.7,39.3,20.3,23.5,16.6,8.6,70,45,25,29.94,29.94,28,7,28,0.00
2013-2-19,53.1,42.8,34.0,44.7,24.4,5.0,92,55,23,29.94,29.94,24,7,24,0.22
2013-2-20,43.9,34.1,27.3,12.2,7.2,0.1,48,35,21,29.94,29.94,15,4,15,0.00
2013-2-21,66.6,42.9,24.1,40.1,18.2,6.4,91,46,16,29.94,29.94,18,4,18,0.59
2013-2-22,49.3,45.0,41.5,45.1,41.3,38.5,96,87,80,29.94,29.94,21,8,21,0.65
2013-2-23,60.8,48.7,46.4,51.5,45.6,43.9,95,89,68,29.94,29.94,8,4,11,0.25
2013-2-24,59.4,47.8,33.1,44.4,29.6,20.6,94,57,27,29.94,29.94,11,3,11,0.00
2013-2-25,54.7,42.2,29.8,39.7,29.9,23.4,84,65,39,29.94,29.94,24,6,24,0.00
2013-2-26,50.5,45.5,39.6,45.8,40.5,31.2,93,83,64,29.94,29.94,30,11,30,1.09
2013-2-27,54.9,42.7,36.9,36.4,30.8,27.5,84,65,39,29.94,29.94,20,6,20,0.04
2013-2-28,39.0,34.6,32.5,28.4,23.6,21.2,73,64,58,29.94,29.94,19,4,19,0.48